Bow Heron — DYTN — position and weather

sailwx.info

Track history (hours):
 
Tides and Currents Weather Stations Pressure Air Temp Water Temp Dewpoint Dewpoint Depression Visibility Wind Speed Wind Dir Waves Ship Positions

Bow Heron

Last reported at 2015-Jan-21 14:33 UTC. Time now 2015-Jan-31 00:51 UTC.
Position S 24°02' W 046°21'.
Warning: this ship's position is 9 days out of date.

Length 174 m; draft 8 m.

Type: Tanker. MMSI: 548779000.

Date/timePositionNaut miles runAvg speedWind from/ knotsBaromVisibWave heightAir tempDewpointWater temp
2015-Jan-21 14:33S 24°02' W 046°21'6 6.1
2015-Jan-21 13:33S 23°56' W 046°19'1 0.0
2015-Jan-20 15:27S 23°55' W 046°20'5 5.3
2015-Jan-20 14:32S 24°00' W 046°20'4 3.8
2015-Jan-20 13:34S 24°04' W 046°20'0 0.2
2015-Jan-20 12:31S 24°04' W 046°20'0 0.0
2015-Jan-20 11:28S 24°04' W 046°20'0 0.0
2015-Jan-20 09:07S 24°04' W 046°20'0 0.0
2015-Jan-20 06:28S 24°04' W 046°20'0 0.0
2015-Jan-20 03:13S 24°04' W 046°20'0 0.0
2015-Jan-20 00:31S 24°04' W 046°20'0 0.0
2015-Jan-19 23:31S 24°04' W 046°20'0 0.0
2015-Jan-19 22:31S 24°04' W 046°20'0 0.0
2015-Jan-19 21:22S 24°04' W 046°20'0 0.0
2015-Jan-19 20:16S 24°04' W 046°20'0 0.0
2015-Jan-19 19:16S 24°04' W 046°20'0 0.1
2015-Jan-19 18:31S 24°04' W 046°20'0 0.0
2015-Jan-19 09:28S 24°04' W 046°20'0 0.0
2015-Jan-19 06:19S 24°04' W 046°20'0 0.0
2015-Jan-18 17:10S 24°04' W 046°20'0 0.0
2015-Jan-18 15:16S 24°04' W 046°20'0 0.0
2015-Jan-18 12:28S 24°04' W 046°20'0 0.0
2015-Jan-18 09:13S 24°04' W 046°20'0 0.0
2015-Jan-18 07:31S 24°04' W 046°20'0 0.0
2015-Jan-18 05:10S 24°04' W 046°20'0 0.0
2015-Jan-17 14:25S 24°04' W 046°20'0 0.0
2015-Jan-17 12:13S 24°04' W 046°20'0 0.1
2015-Jan-17 11:04S 24°04' W 046°20'0 0.1
2015-Jan-17 10:31S 24°04' W 046°20'0 0.0
2015-Jan-17 08:28S 24°04' W 046°20'0 0.0
2015-Jan-17 07:16S 24°04' W 046°20'0 0.0
2015-Jan-16 19:16S 24°04' W 046°20'0 0.1
2015-Jan-16 18:32S 24°04' W 046°20'6 5.8
2015-Jan-16 17:33S 23°59' W 046°17'4 3.9
2015-Jan-16 16:33S 23°56' W 046°20'0 0.0
2015-Jan-16 15:24S 23°56' W 046°20'0 0.0
2015-Jan-16 14:30S 23°56' W 046°20'0 0.0
2015-Jan-16 13:09S 23°56' W 046°20'0 0.0
2015-Jan-16 10:33S 23°56' W 046°20'0 0.0
2015-Jan-16 09:30S 23°56' W 046°20'0 0.0
2015-Jan-16 08:12S 23°56' W 046°20'0 0.0
2015-Jan-16 07:27S 23°56' W 046°20'0 0.0
2015-Jan-16 04:27S 23°56' W 046°20'0 0.0
2015-Jan-16 02:30S 23°56' W 046°20'0 0.0
2015-Jan-16 01:18S 23°56' W 046°20'0 0.0
2015-Jan-15 22:24S 23°56' W 046°20'0 0.0
2015-Jan-15 21:24S 23°56' W 046°20'0 0.0
2015-Jan-15 15:06S 23°56' W 046°20'0 0.0
2015-Jan-15 14:30S 23°56' W 046°20'0 0.0
2015-Jan-15 13:18S 23°56' W 046°20'0 0.0
2015-Jan-15 12:30S 23°56' W 046°20'0 0.0
2015-Jan-15 11:12S 23°56' W 046°20'0 0.0
2015-Jan-15 08:18S 23°56' W 046°20'0 0.0
2015-Jan-15 04:30S 23°56' W 046°20'0 0.0
2015-Jan-15 03:12S 23°56' W 046°20'0 0.0
2015-Jan-14 21:07S 23°56' W 046°20'4 7.0
2015-Jan-14 20:33S 23°59' W 046°17'7 6.8
2015-Jan-14 19:32S 24°06' W 046°20'1 0.1
2015-Jan-14 15:13S 24°06' W 046°20'4 6.1
2015-Jan-14 14:33S 24°10' W 046°21'  
Track history (hours):
 
Tides and Currents Weather Stations Pressure Air Temp Water Temp Dewpoint Dewpoint Depression Visibility Wind Speed Wind Dir Waves Ship Positions

Bow Heron

Last reported at 2015-Jan-21 14:33 UTC. Time now 2015-Jan-31 00:51 UTC.
Position S 24°02' W 046°21'.
Warning: this ship's position is 9 days out of date.

Length 174 m; draft 8 m.

Type: Tanker. MMSI: 548779000.

Date/timePositionNaut miles runAvg speedWind from/ knotsBaromVisibWave heightAir tempDewpointWater temp
2015-Jan-21 14:33S 24°02' W 046°21'6 6.1
2015-Jan-21 13:33S 23°56' W 046°19'1 0.0
2015-Jan-20 15:27S 23°55' W 046°20'5 5.3
2015-Jan-20 14:32S 24°00' W 046°20'4 3.8
2015-Jan-20 13:34S 24°04' W 046°20'0 0.2
2015-Jan-20 12:31S 24°04' W 046°20'0 0.0
2015-Jan-20 11:28S 24°04' W 046°20'0 0.0
2015-Jan-20 09:07S 24°04' W 046°20'0 0.0
2015-Jan-20 06:28S 24°04' W 046°20'0 0.0
2015-Jan-20 03:13S 24°04' W 046°20'0 0.0
2015-Jan-20 00:31S 24°04' W 046°20'0 0.0
2015-Jan-19 23:31S 24°04' W 046°20'0 0.0
2015-Jan-19 22:31S 24°04' W 046°20'0 0.0
2015-Jan-19 21:22S 24°04' W 046°20'0 0.0
2015-Jan-19 20:16S 24°04' W 046°20'0 0.0
2015-Jan-19 19:16S 24°04' W 046°20'0 0.1
2015-Jan-19 18:31S 24°04' W 046°20'0 0.0
2015-Jan-19 09:28S 24°04' W 046°20'0 0.0
2015-Jan-19 06:19S 24°04' W 046°20'0 0.0
2015-Jan-18 17:10S 24°04' W 046°20'0 0.0
2015-Jan-18 15:16S 24°04' W 046°20'0 0.0
2015-Jan-18 12:28S 24°04' W 046°20'0 0.0
2015-Jan-18 09:13S 24°04' W 046°20'0 0.0
2015-Jan-18 07:31S 24°04' W 046°20'0 0.0
2015-Jan-18 05:10S 24°04' W 046°20'0 0.0
2015-Jan-17 14:25S 24°04' W 046°20'0 0.0
2015-Jan-17 12:13S 24°04' W 046°20'0 0.1
2015-Jan-17 11:04S 24°04' W 046°20'0 0.1
2015-Jan-17 10:31S 24°04' W 046°20'0 0.0
2015-Jan-17 08:28S 24°04' W 046°20'0 0.0
2015-Jan-17 07:16S 24°04' W 046°20'0 0.0
2015-Jan-16 19:16S 24°04' W 046°20'0 0.1
2015-Jan-16 18:32S 24°04' W 046°20'6 5.8
2015-Jan-16 17:33S 23°59' W 046°17'4 3.9
2015-Jan-16 16:33S 23°56' W 046°20'0 0.0
2015-Jan-16 15:24S 23°56' W 046°20'0 0.0
2015-Jan-16 14:30S 23°56' W 046°20'0 0.0
2015-Jan-16 13:09S 23°56' W 046°20'0 0.0
2015-Jan-16 10:33S 23°56' W 046°20'0 0.0
2015-Jan-16 09:30S 23°56' W 046°20'0 0.0
2015-Jan-16 08:12S 23°56' W 046°20'0 0.0
2015-Jan-16 07:27S 23°56' W 046°20'0 0.0
2015-Jan-16 04:27S 23°56' W 046°20'0 0.0
2015-Jan-16 02:30S 23°56' W 046°20'0 0.0
2015-Jan-16 01:18S 23°56' W 046°20'0 0.0
2015-Jan-15 22:24S 23°56' W 046°20'0 0.0
2015-Jan-15 21:24S 23°56' W 046°20'0 0.0
2015-Jan-15 15:06S 23°56' W 046°20'0 0.0
2015-Jan-15 14:30S 23°56' W 046°20'0 0.0
2015-Jan-15 13:18S 23°56' W 046°20'0 0.0
2015-Jan-15 12:30S 23°56' W 046°20'0 0.0
2015-Jan-15 11:12S 23°56' W 046°20'0 0.0
2015-Jan-15 08:18S 23°56' W 046°20'0 0.0
2015-Jan-15 04:30S 23°56' W 046°20'0 0.0
2015-Jan-15 03:12S 23°56' W 046°20'0 0.0
2015-Jan-14 21:07S 23°56' W 046°20'4 7.0
2015-Jan-14 20:33S 23°59' W 046°17'7 6.8
2015-Jan-14 19:32S 24°06' W 046°20'1 0.1
2015-Jan-14 15:13S 24°06' W 046°20'4 6.1
2015-Jan-14 14:33S 24°10' W 046°21'  

Dump ship's entire track history